sensor_id;sensor_type;location;lat;lon;timestamp;P1;durP1;ratioP1;P2;durP2;ratioP2
8952;SDS011;4511;50.890;8.054;2022-08-19T00:00:08;28.30;;;25.63;;
8952;SDS011;4511;50.890;8.054;2022-08-19T00:02:39;28.43;;;25.60;;
8952;SDS011;4511;50.890;8.054;2022-08-19T00:05:07;27.27;;;24.63;;
8952;SDS011;4511;50.890;8.054;2022-08-19T00:07:34;27.97;;;25.30;;
8952;SDS011;4511;50.890;8.054;2022-08-19T00:10:02;27.93;;;25.33;;
8952;SDS011;4511;50.890;8.054;2022-08-19T00:12:30;28.13;;;25.43;;
8952;SDS011;4511;50.890;8.054;2022-08-19T00:14:56;27.37;;;24.73;;
8952;SDS011;4511;50.890;8.054;2022-08-19T00:17:24;30.23;;;27.33;;
8952;SDS011;4511;50.890;8.054;2022-08-19T00:19:52;27.90;;;25.17;;
8952;SDS011;4511;50.890;8.054;2022-08-19T00:22:18;28.00;;;25.43;;
8952;SDS011;4511;50.890;8.054;2022-08-19T00:24:45;28.43;;;25.70;;
8952;SDS011;4511;50.890;8.054;2022-08-19T00:27:12;28.23;;;25.40;;
8952;SDS011;4511;50.890;8.054;2022-08-19T00:29:39;29.27;;;26.37;;
8952;SDS011;4511;50.890;8.054;2022-08-19T00:32:06;28.23;;;25.60;;
8952;SDS011;4511;50.890;8.054;2022-08-19T00:34:34;28.67;;;25.97;;
8952;SDS011;4511;50.890;8.054;2022-08-19T00:37:01;27.77;;;25.17;;
8952;SDS011;4511;50.890;8.054;2022-08-19T00:39:28;29.77;;;26.80;;
8952;SDS011;4511;50.890;8.054;2022-08-19T00:41:55;29.03;;;26.03;;
8952;SDS011;4511;50.890;8.054;2022-08-19T00:44:23;29.27;;;26.57;;
8952;SDS011;4511;50.890;8.054;2022-08-19T00:46:51;27.93;;;25.20;;
8952;SDS011;4511;50.890;8.054;2022-08-19T00:49:20;29.93;;;26.97;;
8952;SDS011;4511;50.890;8.054;2022-08-19T00:51:52;31.20;;;27.90;;
8952;SDS011;4511;50.890;8.054;2022-08-19T00:54:23;29.30;;;26.27;;
8952;SDS011;4511;50.890;8.054;2022-08-19T00:56:51;28.53;;;25.73;;
8952;SDS011;4511;50.890;8.054;2022-08-19T00:59:19;28.90;;;26.07;;
8952;SDS011;4511;50.890;8.054;2022-08-19T01:01:47;29.43;;;26.57;;
8952;SDS011;4511;50.890;8.054;2022-08-19T01:04:14;29.80;;;26.90;;
8952;SDS011;4511;50.890;8.054;2022-08-19T01:06:41;29.90;;;26.80;;
8952;SDS011;4511;50.890;8.054;2022-08-19T01:09:09;29.43;;;26.63;;
8952;SDS011;4511;50.890;8.054;2022-08-19T01:11:38;30.07;;;27.13;;
8952;SDS011;4511;50.890;8.054;2022-08-19T01:14:07;28.40;;;25.73;;
8952;SDS011;4511;50.890;8.054;2022-08-19T01:16:35;28.80;;;25.90;;
8952;SDS011;4511;50.890;8.054;2022-08-19T01:19:06;28.60;;;25.80;;
8952;SDS011;4511;50.890;8.054;2022-08-19T01:21:44;28.70;;;26.00;;
8952;SDS011;4511;50.890;8.054;2022-08-19T01:24:17;29.27;;;26.47;;
8952;SDS011;4511;50.890;8.054;2022-08-19T01:26:44;27.20;;;24.60;;
8952;SDS011;4511;50.890;8.054;2022-08-19T01:29:12;26.97;;;24.30;;
8952;SDS011;4511;50.890;8.054;2022-08-19T01:31:38;29.47;;;26.40;;
8952;SDS011;4511;50.890;8.054;2022-08-19T01:34:06;29.10;;;26.20;;
8952;SDS011;4511;50.890;8.054;2022-08-19T01:36:34;28.57;;;25.60;;
8952;SDS011;4511;50.890;8.054;2022-08-19T01:39:04;30.37;;;27.37;;
8952;SDS011;4511;50.890;8.054;2022-08-19T01:41:35;28.77;;;25.97;;
8952;SDS011;4511;50.890;8.054;2022-08-19T01:44:02;29.57;;;26.67;;
8952;SDS011;4511;50.890;8.054;2022-08-19T01:46:30;30.60;;;27.63;;
8952;SDS011;4511;50.890;8.054;2022-08-19T01:48:58;30.43;;;27.37;;
8952;SDS011;4511;50.890;8.054;2022-08-19T01:51:25;29.70;;;26.77;;
8952;SDS011;4511;50.890;8.054;2022-08-19T01:53:51;29.50;;;26.50;;
8952;SDS011;4511;50.890;8.054;2022-08-19T01:56:19;29.67;;;26.70;;
8952;SDS011;4511;50.890;8.054;2022-08-19T01:58:49;28.90;;;26.10;;
8952;SDS011;4511;50.890;8.054;2022-08-19T02:01:19;29.30;;;26.40;;
8952;SDS011;4511;50.890;8.054;2022-08-19T02:03:46;28.60;;;25.80;;
8952;SDS011;4511;50.890;8.054;2022-08-19T02:06:13;29.50;;;26.60;;
8952;SDS011;4511;50.890;8.054;2022-08-19T02:08:42;31.23;;;28.10;;
8952;SDS011;4511;50.890;8.054;2022-08-19T02:11:17;30.73;;;27.73;;
8952;SDS011;4511;50.890;8.054;2022-08-19T02:13:47;28.87;;;26.07;;
8952;SDS011;4511;50.890;8.054;2022-08-19T02:16:15;27.53;;;24.97;;
8952;SDS011;4511;50.890;8.054;2022-08-19T02:18:42;29.33;;;26.43;;
8952;SDS011;4511;50.890;8.054;2022-08-19T02:21:08;28.80;;;25.93;;
8952;SDS011;4511;50.890;8.054;2022-08-19T02:23:35;32.03;;;28.67;;
8952;SDS011;4511;50.890;8.054;2022-08-19T02:26:02;30.90;;;27.73;;
8952;SDS011;4511;50.890;8.054;2022-08-19T02:28:29;30.20;;;27.23;;
8952;SDS011;4511;50.890;8.054;2022-08-19T02:30:58;28.27;;;25.43;;
8952;SDS011;4511;50.890;8.054;2022-08-19T02:33:27;29.10;;;26.23;;
8952;SDS011;4511;50.890;8.054;2022-08-19T02:35:54;29.83;;;26.83;;
8952;SDS011;4511;50.890;8.054;2022-08-19T02:38:21;29.97;;;26.77;;
8952;SDS011;4511;50.890;8.054;2022-08-19T02:40:53;28.77;;;25.87;;
8952;SDS011;4511;50.890;8.054;2022-08-19T02:43:23;28.33;;;25.67;;
8952;SDS011;4511;50.890;8.054;2022-08-19T02:45:50;29.20;;;26.30;;
8952;SDS011;4511;50.890;8.054;2022-08-19T02:48:20;31.60;;;28.20;;
8952;SDS011;4511;50.890;8.054;2022-08-19T02:50:48;32.80;;;29.40;;
8952;SDS011;4511;50.890;8.054;2022-08-19T02:53:20;31.50;;;28.30;;
8952;SDS011;4511;50.890;8.054;2022-08-19T02:55:47;31.57;;;28.43;;
8952;SDS011;4511;50.890;8.054;2022-08-19T02:58:14;31.17;;;28.00;;
8952;SDS011;4511;50.890;8.054;2022-08-19T03:00:44;32.23;;;29.03;;
8952;SDS011;4511;50.890;8.054;2022-08-19T03:03:13;34.97;;;31.33;;
8952;SDS011;4511;50.890;8.054;2022-08-19T03:05:41;31.03;;;27.83;;
8952;SDS011;4511;50.890;8.054;2022-08-19T03:08:09;31.70;;;28.40;;
8952;SDS011;4511;50.890;8.054;2022-08-19T03:10:42;31.10;;;27.97;;
8952;SDS011;4511;50.890;8.054;2022-08-19T03:13:11;30.07;;;27.03;;
8952;SDS011;4511;50.890;8.054;2022-08-19T03:15:40;29.33;;;26.07;;
8952;SDS011;4511;50.890;8.054;2022-08-19T03:18:08;29.73;;;26.70;;
8952;SDS011;4511;50.890;8.054;2022-08-19T03:20:39;30.77;;;27.63;;
8952;SDS011;4511;50.890;8.054;2022-08-19T03:23:09;30.87;;;27.33;;
8952;SDS011;4511;50.890;8.054;2022-08-19T03:25:38;30.30;;;27.23;;
8952;SDS011;4511;50.890;8.054;2022-08-19T03:28:08;30.47;;;27.23;;
8952;SDS011;4511;50.890;8.054;2022-08-19T03:30:35;28.23;;;25.43;;
8952;SDS011;4511;50.890;8.054;2022-08-19T03:33:02;29.03;;;26.13;;
8952;SDS011;4511;50.890;8.054;2022-08-19T03:35:29;30.80;;;27.60;;
8952;SDS011;4511;50.890;8.054;2022-08-19T03:37:57;32.13;;;28.80;;
8952;SDS011;4511;50.890;8.054;2022-08-19T03:40:24;30.90;;;27.70;;
8952;SDS011;4511;50.890;8.054;2022-08-19T03:42:51;30.77;;;27.60;;
8952;SDS011;4511;50.890;8.054;2022-08-19T03:45:17;30.50;;;27.27;;
8952;SDS011;4511;50.890;8.054;2022-08-19T03:47:44;30.67;;;27.57;;
8952;SDS011;4511;50.890;8.054;2022-08-19T03:50:11;30.40;;;27.23;;
8952;SDS011;4511;50.890;8.054;2022-08-19T03:52:38;29.93;;;26.70;;
8952;SDS011;4511;50.890;8.054;2022-08-19T03:55:07;32.63;;;29.13;;
8952;SDS011;4511;50.890;8.054;2022-08-19T03:57:34;32.27;;;29.00;;
8952;SDS011;4511;50.890;8.054;2022-08-19T04:00:01;30.60;;;27.60;;
8952;SDS011;4511;50.890;8.054;2022-08-19T04:02:30;30.73;;;27.53;;
8952;SDS011;4511;50.890;8.054;2022-08-19T04:04:56;30.13;;;27.03;;
8952;SDS011;4511;50.890;8.054;2022-08-19T04:07:23;30.57;;;27.47;;
8952;SDS011;4511;50.890;8.054;2022-08-19T04:09:50;30.13;;;27.03;;
8952;SDS011;4511;50.890;8.054;2022-08-19T04:12:19;35.33;;;30.33;;
8952;SDS011;4511;50.890;8.054;2022-08-19T04:14:46;32.33;;;28.30;;
8952;SDS011;4511;50.890;8.054;2022-08-19T04:17:13;28.87;;;25.80;;
8952;SDS011;4511;50.890;8.054;2022-08-19T04:19:40;31.10;;;28.03;;
8952;SDS011;4511;50.890;8.054;2022-08-19T04:22:08;31.77;;;28.57;;
8952;SDS011;4511;50.890;8.054;2022-08-19T04:24:36;28.17;;;25.37;;
8952;SDS011;4511;50.890;8.054;2022-08-19T04:27:04;34.50;;;30.40;;
8952;SDS011;4511;50.890;8.054;2022-08-19T04:29:32;31.77;;;28.47;;
8952;SDS011;4511;50.890;8.054;2022-08-19T04:32:00;31.00;;;27.73;;
8952;SDS011;4511;50.890;8.054;2022-08-19T04:34:27;31.40;;;28.10;;
8952;SDS011;4511;50.890;8.054;2022-08-19T04:36:55;31.07;;;27.67;;
8952;SDS011;4511;50.890;8.054;2022-08-19T04:39:24;29.87;;;26.87;;
8952;SDS011;4511;50.890;8.054;2022-08-19T04:42:14;31.93;;;27.47;;
8952;SDS011;4511;50.890;8.054;2022-08-19T04:45:00;30.67;;;27.30;;
8952;SDS011;4511;50.890;8.054;2022-08-19T04:47:28;30.57;;;27.37;;
8952;SDS011;4511;50.890;8.054;2022-08-19T04:49:57;31.43;;;27.53;;
8952;SDS011;4511;50.890;8.054;2022-08-19T04:52:24;31.43;;;28.00;;
8952;SDS011;4511;50.890;8.054;2022-08-19T04:54:51;31.53;;;28.23;;
8952;SDS011;4511;50.890;8.054;2022-08-19T04:57:18;31.50;;;28.20;;
8952;SDS011;4511;50.890;8.054;2022-08-19T04:59:44;32.77;;;28.67;;
8952;SDS011;4511;50.890;8.054;2022-08-19T05:02:12;31.47;;;28.23;;
8952;SDS011;4511;50.890;8.054;2022-08-19T05:04:39;33.73;;;28.57;;
8952;SDS011;4511;50.890;8.054;2022-08-19T05:07:06;32.23;;;28.03;;
8952;SDS011;4511;50.890;8.054;2022-08-19T05:09:35;29.80;;;26.57;;
8952;SDS011;4511;50.890;8.054;2022-08-19T05:12:02;29.70;;;26.53;;
8952;SDS011;4511;50.890;8.054;2022-08-19T05:14:29;22.90;;;20.67;;
8952;SDS011;4511;50.890;8.054;2022-08-19T05:16:56;27.57;;;24.77;;
8952;SDS011;4511;50.890;8.054;2022-08-19T05:19:24;29.23;;;26.13;;
8952;SDS011;4511;50.890;8.054;2022-08-19T05:22:08;27.83;;;24.93;;
8952;SDS011;4511;50.890;8.054;2022-08-19T05:24:52;30.93;;;27.60;;
8952;SDS011;4511;50.890;8.054;2022-08-19T05:27:19;31.77;;;27.17;;
8952;SDS011;4511;50.890;8.054;2022-08-19T05:29:46;30.80;;;27.47;;
8952;SDS011;4511;50.890;8.054;2022-08-19T05:32:13;30.77;;;27.67;;
8952;SDS011;4511;50.890;8.054;2022-08-19T05:34:41;31.30;;;27.20;;
8952;SDS011;4511;50.890;8.054;2022-08-19T05:37:08;29.50;;;26.43;;
8952;SDS011;4511;50.890;8.054;2022-08-19T05:39:36;30.63;;;26.30;;
8952;SDS011;4511;50.890;8.054;2022-08-19T05:42:05;30.63;;;27.33;;
8952;SDS011;4511;50.890;8.054;2022-08-19T05:44:36;32.27;;;28.83;;
8952;SDS011;4511;50.890;8.054;2022-08-19T05:47:08;29.80;;;26.67;;
8952;SDS011;4511;50.890;8.054;2022-08-19T05:49:36;32.23;;;28.83;;
8952;SDS011;4511;50.890;8.054;2022-08-19T05:52:06;34.10;;;30.50;;
8952;SDS011;4511;50.890;8.054;2022-08-19T05:54:36;34.57;;;30.87;;
8952;SDS011;4511;50.890;8.054;2022-08-19T05:57:05;33.13;;;29.50;;
8952;SDS011;4511;50.890;8.054;2022-08-19T05:59:32;30.27;;;27.07;;
8952;SDS011;4511;50.890;8.054;2022-08-19T06:02:00;32.33;;;29.00;;
8952;SDS011;4511;50.890;8.054;2022-08-19T06:04:28;31.03;;;27.73;;
8952;SDS011;4511;50.890;8.054;2022-08-19T06:06:54;27.60;;;24.50;;
8952;SDS011;4511;50.890;8.054;2022-08-19T06:09:23;29.40;;;26.17;;
8952;SDS011;4511;50.890;8.054;2022-08-19T06:11:51;29.13;;;26.27;;
8952;SDS011;4511;50.890;8.054;2022-08-19T06:14:20;28.50;;;25.53;;
8952;SDS011;4511;50.890;8.054;2022-08-19T06:16:49;30.07;;;26.87;;
8952;SDS011;4511;50.890;8.054;2022-08-19T06:19:17;31.50;;;27.83;;
8952;SDS011;4511;50.890;8.054;2022-08-19T06:21:47;31.13;;;27.77;;
8952;SDS011;4511;50.890;8.054;2022-08-19T06:24:16;31.93;;;28.63;;
8952;SDS011;4511;50.890;8.054;2022-08-19T06:26:46;31.93;;;28.43;;
8952;SDS011;4511;50.890;8.054;2022-08-19T06:29:14;31.23;;;27.80;;
8952;SDS011;4511;50.890;8.054;2022-08-19T06:31:43;31.90;;;28.50;;
8952;SDS011;4511;50.890;8.054;2022-08-19T06:34:12;30.60;;;27.30;;
8952;SDS011;4511;50.890;8.054;2022-08-19T06:36:41;32.73;;;29.23;;
8952;SDS011;4511;50.890;8.054;2022-08-19T06:39:09;32.37;;;29.07;;
8952;SDS011;4511;50.890;8.054;2022-08-19T06:41:38;39.77;;;33.50;;
8952;SDS011;4511;50.890;8.054;2022-08-19T06:44:09;36.77;;;32.97;;
8952;SDS011;4511;50.890;8.054;2022-08-19T06:46:37;36.83;;;32.23;;
8952;SDS011;4511;50.890;8.054;2022-08-19T06:49:05;33.57;;;29.97;;
8952;SDS011;4511;50.890;8.054;2022-08-19T06:51:34;34.30;;;30.80;;
8952;SDS011;4511;50.890;8.054;2022-08-19T06:54:01;36.87;;;32.10;;
8952;SDS011;4511;50.890;8.054;2022-08-19T06:56:29;34.50;;;30.80;;
8952;SDS011;4511;50.890;8.054;2022-08-19T06:58:58;34.83;;;30.50;;
8952;SDS011;4511;50.890;8.054;2022-08-19T07:01:26;34.03;;;30.53;;
8952;SDS011;4511;50.890;8.054;2022-08-19T07:03:53;33.03;;;29.60;;
8952;SDS011;4511;50.890;8.054;2022-08-19T07:06:21;33.07;;;28.80;;
8952;SDS011;4511;50.890;8.054;2022-08-19T07:08:48;30.50;;;27.20;;
8952;SDS011;4511;50.890;8.054;2022-08-19T07:11:16;30.53;;;27.33;;
8952;SDS011;4511;50.890;8.054;2022-08-19T07:13:44;31.57;;;27.37;;
8952;SDS011;4511;50.890;8.054;2022-08-19T07:16:13;28.87;;;25.17;;
8952;SDS011;4511;50.890;8.054;2022-08-19T07:18:43;30.20;;;26.97;;
8952;SDS011;4511;50.890;8.054;2022-08-19T07:21:11;28.97;;;25.77;;
8952;SDS011;4511;50.890;8.054;2022-08-19T07:23:40;30.70;;;24.37;;
8952;SDS011;4511;50.890;8.054;2022-08-19T07:26:07;27.50;;;24.57;;
8952;SDS011;4511;50.890;8.054;2022-08-19T07:28:35;27.33;;;24.43;;
8952;SDS011;4511;50.890;8.054;2022-08-19T07:31:04;28.40;;;24.33;;
8952;SDS011;4511;50.890;8.054;2022-08-19T07:33:31;28.07;;;24.70;;
8952;SDS011;4511;50.890;8.054;2022-08-19T07:36:02;25.73;;;22.70;;
8952;SDS011;4511;50.890;8.054;2022-08-19T07:38:30;24.77;;;22.17;;
8952;SDS011;4511;50.890;8.054;2022-08-19T07:40:57;24.30;;;21.90;;
8952;SDS011;4511;50.890;8.054;2022-08-19T07:43:24;24.57;;;22.13;;
8952;SDS011;4511;50.890;8.054;2022-08-19T07:45:52;25.23;;;22.47;;
8952;SDS011;4511;50.890;8.054;2022-08-19T07:48:21;24.87;;;21.40;;
8952;SDS011;4511;50.890;8.054;2022-08-19T07:50:49;24.93;;;21.77;;
8952;SDS011;4511;50.890;8.054;2022-08-19T07:53:18;25.00;;;22.40;;
8952;SDS011;4511;50.890;8.054;2022-08-19T07:55:45;23.23;;;20.70;;
8952;SDS011;4511;50.890;8.054;2022-08-19T07:58:13;25.70;;;22.97;;
8952;SDS011;4511;50.890;8.054;2022-08-19T08:00:42;24.07;;;20.73;;
8952;SDS011;4511;50.890;8.054;2022-08-19T08:03:10;22.43;;;20.13;;
8952;SDS011;4511;50.890;8.054;2022-08-19T08:05:37;21.77;;;19.67;;
8952;SDS011;4511;50.890;8.054;2022-08-19T08:08:26;19.63;;;17.77;;
8952;SDS011;4511;50.890;8.054;2022-08-19T08:11:11;20.40;;;18.30;;
8952;SDS011;4511;50.890;8.054;2022-08-19T08:13:38;16.90;;;15.20;;
8952;SDS011;4511;50.890;8.054;2022-08-19T08:16:06;17.67;;;16.07;;
8952;SDS011;4511;50.890;8.054;2022-08-19T08:18:33;17.43;;;15.70;;
8952;SDS011;4511;50.890;8.054;2022-08-19T08:21:06;16.37;;;14.77;;
8952;SDS011;4511;50.890;8.054;2022-08-19T08:23:35;16.50;;;15.03;;
8952;SDS011;4511;50.890;8.054;2022-08-19T08:26:01;17.50;;;15.73;;
8952;SDS011;4511;50.890;8.054;2022-08-19T08:28:29;18.07;;;16.30;;
8952;SDS011;4511;50.890;8.054;2022-08-19T08:30:57;15.47;;;13.97;;
8952;SDS011;4511;50.890;8.054;2022-08-19T08:33:24;18.00;;;16.10;;
8952;SDS011;4511;50.890;8.054;2022-08-19T08:35:52;17.80;;;16.20;;
8952;SDS011;4511;50.890;8.054;2022-08-19T08:38:19;17.57;;;15.77;;
8952;SDS011;4511;50.890;8.054;2022-08-19T08:40:48;15.17;;;13.83;;
8952;SDS011;4511;50.890;8.054;2022-08-19T08:43:20;19.33;;;17.60;;
8952;SDS011;4511;50.890;8.054;2022-08-19T08:45:52;22.20;;;20.10;;
8952;SDS011;4511;50.890;8.054;2022-08-19T08:48:27;21.50;;;19.60;;
8952;SDS011;4511;50.890;8.054;2022-08-19T08:51:00;19.37;;;17.47;;
8952;SDS011;4511;50.890;8.054;2022-08-19T08:53:29;21.10;;;19.20;;
8952;SDS011;4511;50.890;8.054;2022-08-19T08:55:59;18.90;;;17.20;;
8952;SDS011;4511;50.890;8.054;2022-08-19T08:58:32;21.47;;;19.63;;
8952;SDS011;4511;50.890;8.054;2022-08-19T09:01:08;20.20;;;18.30;;
8952;SDS011;4511;50.890;8.054;2022-08-19T09:03:36;19.53;;;17.83;;
8952;SDS011;4511;50.890;8.054;2022-08-19T09:06:04;21.70;;;19.60;;
8952;SDS011;4511;50.890;8.054;2022-08-19T09:08:37;22.53;;;20.53;;
8952;SDS011;4511;50.890;8.054;2022-08-19T09:11:11;21.50;;;19.40;;
8952;SDS011;4511;50.890;8.054;2022-08-19T09:13:47;22.00;;;19.93;;
8952;SDS011;4511;50.890;8.054;2022-08-19T09:16:22;20.20;;;18.30;;
8952;SDS011;4511;50.890;8.054;2022-08-19T09:18:53;19.87;;;18.20;;
8952;SDS011;4511;50.890;8.054;2022-08-19T09:21:23;22.53;;;20.50;;
8952;SDS011;4511;50.890;8.054;2022-08-19T09:23:52;21.20;;;19.30;;
8952;SDS011;4511;50.890;8.054;2022-08-19T09:26:22;19.37;;;17.40;;
8952;SDS011;4511;50.890;8.054;2022-08-19T09:28:50;16.97;;;15.47;;
8952;SDS011;4511;50.890;8.054;2022-08-19T09:31:18;17.50;;;15.93;;
8952;SDS011;4511;50.890;8.054;2022-08-19T09:33:46;17.37;;;15.87;;
8952;SDS011;4511;50.890;8.054;2022-08-19T09:36:15;17.53;;;15.97;;
8952;SDS011;4511;50.890;8.054;2022-08-19T09:38:43;16.83;;;15.07;;
8952;SDS011;4511;50.890;8.054;2022-08-19T09:41:12;14.47;;;13.10;;
8952;SDS011;4511;50.890;8.054;2022-08-19T09:43:42;17.03;;;15.33;;
8952;SDS011;4511;50.890;8.054;2022-08-19T09:46:11;15.40;;;14.00;;
8952;SDS011;4511;50.890;8.054;2022-08-19T09:48:39;12.50;;;11.40;;
8952;SDS011;4511;50.890;8.054;2022-08-19T09:51:08;10.53;;;9.60;;
8952;SDS011;4511;50.890;8.054;2022-08-19T09:53:40;10.93;;;9.93;;
8952;SDS011;4511;50.890;8.054;2022-08-19T09:56:07;13.40;;;12.30;;
8952;SDS011;4511;50.890;8.054;2022-08-19T09:58:34;14.30;;;12.27;;
8952;SDS011;4511;50.890;8.054;2022-08-19T10:01:04;13.57;;;12.27;;
8952;SDS011;4511;50.890;8.054;2022-08-19T10:03:33;13.77;;;12.53;;
8952;SDS011;4511;50.890;8.054;2022-08-19T10:06:01;12.57;;;11.47;;
8952;SDS011;4511;50.890;8.054;2022-08-19T10:08:30;11.13;;;10.23;;
8952;SDS011;4511;50.890;8.054;2022-08-19T10:10:59;9.80;;;9.07;;
8952;SDS011;4511;50.890;8.054;2022-08-19T10:13:28;9.83;;;8.90;;
8952;SDS011;4511;50.890;8.054;2022-08-19T10:16:01;9.53;;;8.67;;
8952;SDS011;4511;50.890;8.054;2022-08-19T10:18:32;9.43;;;8.43;;
8952;SDS011;4511;50.890;8.054;2022-08-19T10:21:04;8.60;;;7.90;;
8952;SDS011;4511;50.890;8.054;2022-08-19T10:23:34;9.07;;;8.13;;
8952;SDS011;4511;50.890;8.054;2022-08-19T10:26:02;9.17;;;8.20;;
8952;SDS011;4511;50.890;8.054;2022-08-19T10:28:31;8.10;;;7.47;;
8952;SDS011;4511;50.890;8.054;2022-08-19T10:30:58;8.13;;;7.40;;
8952;SDS011;4511;50.890;8.054;2022-08-19T10:33:31;7.83;;;7.10;;
8952;SDS011;4511;50.890;8.054;2022-08-19T10:35:59;7.60;;;7.00;;
8952;SDS011;4511;50.890;8.054;2022-08-19T10:38:26;6.77;;;6.10;;
8952;SDS011;4511;50.890;8.054;2022-08-19T10:40:53;7.33;;;6.57;;
8952;SDS011;4511;50.890;8.054;2022-08-19T10:43:20;6.70;;;6.03;;
8952;SDS011;4511;50.890;8.054;2022-08-19T10:45:48;5.70;;;5.30;;
8952;SDS011;4511;50.890;8.054;2022-08-19T10:48:20;6.87;;;6.27;;
8952;SDS011;4511;50.890;8.054;2022-08-19T10:50:46;8.13;;;6.20;;
8952;SDS011;4511;50.890;8.054;2022-08-19T10:53:31;6.30;;;5.80;;
8952;SDS011;4511;50.890;8.054;2022-08-19T10:55:57;5.33;;;4.93;;
8952;SDS011;4511;50.890;8.054;2022-08-19T10:58:42;5.67;;;5.27;;
8952;SDS011;4511;50.890;8.054;2022-08-19T11:01:09;5.57;;;5.17;;
8952;SDS011;4511;50.890;8.054;2022-08-19T11:03:37;5.23;;;4.83;;
8952;SDS011;4511;50.890;8.054;2022-08-19T11:06:05;6.27;;;5.20;;
8952;SDS011;4511;50.890;8.054;2022-08-19T11:08:34;5.77;;;5.30;;
8952;SDS011;4511;50.890;8.054;2022-08-19T11:11:03;6.00;;;5.10;;
8952;SDS011;4511;50.890;8.054;2022-08-19T11:13:32;5.73;;;5.30;;
8952;SDS011;4511;50.890;8.054;2022-08-19T11:16:03;6.77;;;6.20;;
8952;SDS011;4511;50.890;8.054;2022-08-19T11:18:31;8.90;;;6.33;;
8952;SDS011;4511;50.890;8.054;2022-08-19T11:21:06;6.00;;;5.50;;
8952;SDS011;4511;50.890;8.054;2022-08-19T11:23:35;6.33;;;5.70;;
8952;SDS011;4511;50.890;8.054;2022-08-19T11:26:01;5.03;;;4.53;;
8952;SDS011;4511;50.890;8.054;2022-08-19T11:28:28;4.67;;;4.27;;
8952;SDS011;4511;50.890;8.054;2022-08-19T11:30:55;4.67;;;4.27;;
8952;SDS011;4511;50.890;8.054;2022-08-19T11:33:22;4.83;;;4.37;;
8952;SDS011;4511;50.890;8.054;2022-08-19T11:35:51;5.10;;;4.67;;
8952;SDS011;4511;50.890;8.054;2022-08-19T11:38:19;4.43;;;4.03;;
8952;SDS011;4511;50.890;8.054;2022-08-19T11:40:53;4.13;;;3.83;;
8952;SDS011;4511;50.890;8.054;2022-08-19T11:43:21;4.43;;;4.13;;
8952;SDS011;4511;50.890;8.054;2022-08-19T11:45:48;5.27;;;4.87;;
8952;SDS011;4511;50.890;8.054;2022-08-19T11:48:15;4.87;;;4.20;;
8952;SDS011;4511;50.890;8.054;2022-08-19T11:50:42;4.97;;;4.07;;
8952;SDS011;4511;50.890;8.054;2022-08-19T11:53:09;4.00;;;3.70;;
8952;SDS011;4511;50.890;8.054;2022-08-19T11:55:37;4.73;;;4.33;;
8952;SDS011;4511;50.890;8.054;2022-08-19T11:58:05;4.40;;;4.00;;
8952;SDS011;4511;50.890;8.054;2022-08-19T12:00:32;4.50;;;4.17;;
8952;SDS011;4511;50.890;8.054;2022-08-19T12:03:00;6.00;;;4.40;;
8952;SDS011;4511;50.890;8.054;2022-08-19T12:05:27;4.87;;;3.97;;
8952;SDS011;4511;50.890;8.054;2022-08-19T12:07:54;4.50;;;4.17;;
8952;SDS011;4511;50.890;8.054;2022-08-19T12:10:21;4.60;;;4.20;;
8952;SDS011;4511;50.890;8.054;2022-08-19T12:12:50;4.80;;;4.50;;
8952;SDS011;4511;50.890;8.054;2022-08-19T12:15:16;4.97;;;4.50;;
8952;SDS011;4511;50.890;8.054;2022-08-19T12:17:43;5.10;;;4.70;;
8952;SDS011;4511;50.890;8.054;2022-08-19T12:20:10;7.13;;;4.80;;
8952;SDS011;4511;50.890;8.054;2022-08-19T12:22:40;5.20;;;4.80;;
8952;SDS011;4511;50.890;8.054;2022-08-19T12:25:08;7.90;;;5.77;;
8952;SDS011;4511;50.890;8.054;2022-08-19T12:27:35;5.33;;;4.93;;
8952;SDS011;4511;50.890;8.054;2022-08-19T12:30:05;5.73;;;4.30;;
8952;SDS011;4511;50.890;8.054;2022-08-19T12:32:33;5.07;;;4.57;;
8952;SDS011;4511;50.890;8.054;2022-08-19T12:35:00;5.30;;;4.60;;
8952;SDS011;4511;50.890;8.054;2022-08-19T12:37:27;4.67;;;4.27;;
8952;SDS011;4511;50.890;8.054;2022-08-19T12:39:56;5.10;;;4.60;;
8952;SDS011;4511;50.890;8.054;2022-08-19T12:42:23;4.93;;;4.43;;
8952;SDS011;4511;50.890;8.054;2022-08-19T12:44:50;4.90;;;4.50;;
8952;SDS011;4511;50.890;8.054;2022-08-19T12:47:19;12.33;;;11.60;;
8952;SDS011;4511;50.890;8.054;2022-08-19T12:49:46;6.07;;;5.50;;
8952;SDS011;4511;50.890;8.054;2022-08-19T12:52:14;5.70;;;5.20;;
8952;SDS011;4511;50.890;8.054;2022-08-19T12:54:41;6.10;;;5.50;;
8952;SDS011;4511;50.890;8.054;2022-08-19T12:57:09;7.30;;;6.20;;
8952;SDS011;4511;50.890;8.054;2022-08-19T12:59:37;7.37;;;6.73;;
8952;SDS011;4511;50.890;8.054;2022-08-19T13:02:05;7.47;;;5.97;;
8952;SDS011;4511;50.890;8.054;2022-08-19T13:04:34;6.57;;;6.07;;
8952;SDS011;4511;50.890;8.054;2022-08-19T13:07:05;6.17;;;5.63;;
8952;SDS011;4511;50.890;8.054;2022-08-19T13:09:32;5.50;;;5.10;;
8952;SDS011;4511;50.890;8.054;2022-08-19T13:11:59;6.20;;;5.60;;
8952;SDS011;4511;50.890;8.054;2022-08-19T13:14:27;6.00;;;5.50;;
8952;SDS011;4511;50.890;8.054;2022-08-19T13:16:56;7.50;;;5.50;;
8952;SDS011;4511;50.890;8.054;2022-08-19T13:19:23;6.17;;;5.73;;
8952;SDS011;4511;50.890;8.054;2022-08-19T13:21:51;6.33;;;5.83;;
8952;SDS011;4511;50.890;8.054;2022-08-19T13:24:18;7.00;;;6.23;;
8952;SDS011;4511;50.890;8.054;2022-08-19T13:26:45;6.07;;;5.33;;
8952;SDS011;4511;50.890;8.054;2022-08-19T13:29:12;6.53;;;6.07;;
8952;SDS011;4511;50.890;8.054;2022-08-19T13:31:57;5.93;;;5.43;;
8952;SDS011;4511;50.890;8.054;2022-08-19T13:34:41;7.00;;;5.30;;
8952;SDS011;4511;50.890;8.054;2022-08-19T13:37:09;5.43;;;5.03;;
8952;SDS011;4511;50.890;8.054;2022-08-19T13:39:36;7.47;;;6.77;;
8952;SDS011;4511;50.890;8.054;2022-08-19T13:42:03;6.33;;;5.93;;
8952;SDS011;4511;50.890;8.054;2022-08-19T13:44:32;7.23;;;6.50;;
8952;SDS011;4511;50.890;8.054;2022-08-19T13:47:00;8.20;;;7.40;;
8952;SDS011;4511;50.890;8.054;2022-08-19T13:49:31;8.70;;;7.80;;
8952;SDS011;4511;50.890;8.054;2022-08-19T13:51:59;7.37;;;6.77;;
8952;SDS011;4511;50.890;8.054;2022-08-19T13:54:27;7.17;;;6.30;;
8952;SDS011;4511;50.890;8.054;2022-08-19T13:56:54;6.40;;;5.80;;
8952;SDS011;4511;50.890;8.054;2022-08-19T13:59:21;7.20;;;6.50;;
8952;SDS011;4511;50.890;8.054;2022-08-19T14:01:47;7.20;;;6.60;;
8952;SDS011;4511;50.890;8.054;2022-08-19T14:04:14;8.03;;;7.23;;
8952;SDS011;4511;50.890;8.054;2022-08-19T14:06:41;11.50;;;7.43;;
8952;SDS011;4511;50.890;8.054;2022-08-19T14:09:08;7.80;;;7.10;;
8952;SDS011;4511;50.890;8.054;2022-08-19T14:11:36;7.30;;;6.63;;
8952;SDS011;4511;50.890;8.054;2022-08-19T14:14:03;6.87;;;6.30;;
8952;SDS011;4511;50.890;8.054;2022-08-19T14:16:29;6.47;;;5.87;;
8952;SDS011;4511;50.890;8.054;2022-08-19T14:18:56;6.67;;;6.00;;
8952;SDS011;4511;50.890;8.054;2022-08-19T14:21:23;6.50;;;5.83;;
8952;SDS011;4511;50.890;8.054;2022-08-19T14:23:51;15.33;;;14.00;;
8952;SDS011;4511;50.890;8.054;2022-08-19T14:26:18;6.47;;;5.90;;
8952;SDS011;4511;50.890;8.054;2022-08-19T14:28:48;7.07;;;6.47;;
8952;SDS011;4511;50.890;8.054;2022-08-19T14:31:17;8.53;;;7.73;;
8952;SDS011;4511;50.890;8.054;2022-08-19T14:33:48;8.90;;;8.20;;
8952;SDS011;4511;50.890;8.054;2022-08-19T14:36:16;7.60;;;7.00;;
8952;SDS011;4511;50.890;8.054;2022-08-19T14:38:43;6.60;;;5.93;;
8952;SDS011;4511;50.890;8.054;2022-08-19T14:41:12;7.40;;;6.90;;
8952;SDS011;4511;50.890;8.054;2022-08-19T14:43:42;7.00;;;6.30;;
8952;SDS011;4511;50.890;8.054;2022-08-19T14:46:11;7.20;;;5.97;;
8952;SDS011;4511;50.890;8.054;2022-08-19T14:48:38;8.60;;;5.57;;
8952;SDS011;4511;50.890;8.054;2022-08-19T14:51:05;5.77;;;5.10;;
8952;SDS011;4511;50.890;8.054;2022-08-19T14:53:32;7.40;;;6.70;;
8952;SDS011;4511;50.890;8.054;2022-08-19T14:55:59;9.57;;;8.47;;
8952;SDS011;4511;50.890;8.054;2022-08-19T14:58:27;14.30;;;13.27;;
8952;SDS011;4511;50.890;8.054;2022-08-19T15:00:54;6.60;;;6.13;;
8952;SDS011;4511;50.890;8.054;2022-08-19T15:03:22;12.67;;;11.77;;